sensor_id;sensor_type;location;lat;lon;timestamp;pressure;altitude;pressure_sealevel;temperature;humidity
17772;BME280;9010;32.624;-96.938;2022-08-04T00:01:02;98491.47;;;36.99;38.90
17772;BME280;9010;32.624;-96.938;2022-08-04T00:03:36;98491.44;;;36.94;40.42
17772;BME280;9010;32.624;-96.938;2022-08-04T00:06:11;98492.31;;;36.99;40.34
17772;BME280;9010;32.624;-96.938;2022-08-04T00:08:45;98497.47;;;36.96;40.52
17772;BME280;9010;32.624;-96.938;2022-08-04T00:11:19;98499.16;;;37.02;39.61
17772;BME280;9010;32.624;-96.938;2022-08-04T00:13:53;98495.59;;;37.01;40.79
17772;BME280;9010;32.624;-96.938;2022-08-04T00:16:27;98503.28;;;36.99;40.42
17772;BME280;9010;32.624;-96.938;2022-08-04T00:19:00;98497.78;;;36.99;39.67
17772;BME280;9010;32.624;-96.938;2022-08-04T00:21:33;98497.44;;;36.85;40.48
17772;BME280;9010;32.624;-96.938;2022-08-04T00:24:03;98497.66;;;36.74;40.92
17772;BME280;9010;32.624;-96.938;2022-08-04T00:26:32;98492.69;;;36.66;41.28
17772;BME280;9010;32.624;-96.938;2022-08-04T00:29:04;98492.09;;;36.59;41.29
17772;BME280;9010;32.624;-96.938;2022-08-04T00:31:33;98492.00;;;36.49;41.46
17772;BME280;9010;32.624;-96.938;2022-08-04T00:34:02;98496.94;;;36.47;41.09
17772;BME280;9010;32.624;-96.938;2022-08-04T00:36:31;98503.47;;;36.41;42.44
17772;BME280;9010;32.624;-96.938;2022-08-04T00:39:00;98505.09;;;36.42;42.58
17772;BME280;9010;32.624;-96.938;2022-08-04T00:41:36;98509.47;;;36.38;42.63
17772;BME280;9010;32.624;-96.938;2022-08-04T00:44:23;98505.09;;;36.42;42.38
17772;BME280;9010;32.624;-96.938;2022-08-04T00:47:04;98515.78;;;36.38;41.60
17772;BME280;9010;32.624;-96.938;2022-08-04T00:49:57;98512.75;;;36.35;41.92
17772;BME280;9010;32.624;-96.938;2022-08-04T00:52:38;98516.56;;;36.33;41.78
17772;BME280;9010;32.624;-96.938;2022-08-04T00:55:26;98505.06;;;36.37;41.40
17772;BME280;9010;32.624;-96.938;2022-08-04T00:58:07;98517.69;;;36.38;40.98
17772;BME280;9010;32.624;-96.938;2022-08-04T01:00:47;98520.09;;;36.29;41.20
17772;BME280;9010;32.624;-96.938;2022-08-04T01:03:23;98520.31;;;36.22;41.65
17772;BME280;9010;32.624;-96.938;2022-08-04T01:06:08;98516.41;;;36.13;41.58
17772;BME280;9010;32.624;-96.938;2022-08-04T01:08:51;98533.06;;;36.07;42.41
17772;BME280;9010;32.624;-96.938;2022-08-04T01:11:36;98535.22;;;36.05;42.21
17772;BME280;9010;32.624;-96.938;2022-08-04T01:14:28;98546.66;;;36.02;41.67
17772;BME280;9010;32.624;-96.938;2022-08-04T01:17:18;98548.66;;;36.06;42.07
17772;BME280;9010;32.624;-96.938;2022-08-04T01:19:59;98560.13;;;36.03;42.05
17772;BME280;9010;32.624;-96.938;2022-08-04T01:22:58;98557.84;;;35.95;42.97
17772;BME280;9010;32.624;-96.938;2022-08-04T01:26:16;98564.34;;;35.89;43.48
17772;BME280;9010;32.624;-96.938;2022-08-04T01:29:05;98566.94;;;35.74;43.82
17772;BME280;9010;32.624;-96.938;2022-08-04T01:31:41;98566.34;;;35.67;43.85
17772;BME280;9010;32.624;-96.938;2022-08-04T01:34:11;98570.59;;;35.58;43.63
17772;BME280;9010;32.624;-96.938;2022-08-04T01:36:49;98584.22;;;35.53;44.21
17772;BME280;9010;32.624;-96.938;2022-08-04T01:39:20;98579.72;;;35.42;44.12
17772;BME280;9010;32.624;-96.938;2022-08-04T01:42:06;98583.13;;;35.32;45.19
17772;BME280;9010;32.624;-96.938;2022-08-04T01:44:39;98577.81;;;35.20;45.69
17772;BME280;9010;32.624;-96.938;2022-08-04T01:47:08;98583.78;;;35.17;45.68
17772;BME280;9010;32.624;-96.938;2022-08-04T01:49:37;98587.28;;;35.13;46.17
17772;BME280;9010;32.624;-96.938;2022-08-04T01:52:10;98582.81;;;35.07;46.28
17772;BME280;9010;32.624;-96.938;2022-08-04T01:54:41;98578.66;;;35.04;46.16
17772;BME280;9010;32.624;-96.938;2022-08-04T01:57:10;98578.28;;;34.96;47.08
17772;BME280;9010;32.624;-96.938;2022-08-04T01:59:43;98585.50;;;34.85;48.53
17772;BME280;9010;32.624;-96.938;2022-08-04T02:02:12;98575.50;;;34.74;48.41
17772;BME280;9010;32.624;-96.938;2022-08-04T02:04:41;98576.25;;;34.70;48.17
17772;BME280;9010;32.624;-96.938;2022-08-04T02:07:27;98581.91;;;34.63;48.42
17772;BME280;9010;32.624;-96.938;2022-08-04T02:12:47;98579.22;;;34.51;49.46
17772;BME280;9010;32.624;-96.938;2022-08-04T02:15:26;98580.97;;;34.41;51.43
17772;BME280;9010;32.624;-96.938;2022-08-04T02:18:07;98589.44;;;34.39;50.88
17772;BME280;9010;32.624;-96.938;2022-08-04T02:20:42;98584.72;;;34.35;50.51
17772;BME280;9010;32.624;-96.938;2022-08-04T02:23:14;98594.56;;;34.36;50.13
17772;BME280;9010;32.624;-96.938;2022-08-04T02:25:46;98596.63;;;34.29;51.41
17772;BME280;9010;32.624;-96.938;2022-08-04T02:28:24;98590.00;;;34.25;51.04
17772;BME280;9010;32.624;-96.938;2022-08-04T02:31:03;98594.31;;;34.21;52.23
17772;BME280;9010;32.624;-96.938;2022-08-04T02:33:37;98596.94;;;34.16;51.77
17772;BME280;9010;32.624;-96.938;2022-08-04T02:36:12;98603.97;;;34.12;52.81
17772;BME280;9010;32.624;-96.938;2022-08-04T02:38:53;98613.94;;;34.06;52.60
17772;BME280;9010;32.624;-96.938;2022-08-04T02:41:23;98599.88;;;33.97;53.73
17772;BME280;9010;32.624;-96.938;2022-08-04T02:43:55;98609.06;;;33.91;53.27
17772;BME280;9010;32.624;-96.938;2022-08-04T02:46:26;98615.72;;;33.84;53.34
17772;BME280;9010;32.624;-96.938;2022-08-04T02:48:55;98621.19;;;33.84;53.52
17772;BME280;9010;32.624;-96.938;2022-08-04T02:51:26;98616.69;;;33.78;54.08
17772;BME280;9010;32.624;-96.938;2022-08-04T02:53:56;98616.38;;;33.74;54.99
17772;BME280;9010;32.624;-96.938;2022-08-04T02:56:27;98622.91;;;33.73;53.12
17772;BME280;9010;32.624;-96.938;2022-08-04T02:58:58;98626.59;;;33.67;54.87
17772;BME280;9010;32.624;-96.938;2022-08-04T03:01:29;98630.91;;;33.63;55.42
17772;BME280;9010;32.624;-96.938;2022-08-04T03:04:10;98627.06;;;33.64;53.94
17772;BME280;9010;32.624;-96.938;2022-08-04T03:07:22;98626.50;;;33.62;53.56
17772;BME280;9010;32.624;-96.938;2022-08-04T03:10:18;98619.75;;;33.53;53.64
17772;BME280;9010;32.624;-96.938;2022-08-04T03:13:25;98624.72;;;33.56;53.50
17772;BME280;9010;32.624;-96.938;2022-08-04T03:16:00;98626.84;;;33.54;53.91
17772;BME280;9010;32.624;-96.938;2022-08-04T03:19:05;98633.28;;;33.48;56.27
17772;BME280;9010;32.624;-96.938;2022-08-04T03:21:57;98636.38;;;33.40;54.96
17772;BME280;9010;32.624;-96.938;2022-08-04T03:28:00;98647.06;;;33.30;56.22
17772;BME280;9010;32.624;-96.938;2022-08-04T03:30:37;98651.84;;;33.23;56.57
17772;BME280;9010;32.624;-96.938;2022-08-04T03:33:34;98653.25;;;33.14;56.96
17772;BME280;9010;32.624;-96.938;2022-08-04T03:39:57;98664.38;;;33.01;57.24
17772;BME280;9010;32.624;-96.938;2022-08-04T03:42:50;98668.06;;;32.94;56.93
17772;BME280;9010;32.624;-96.938;2022-08-04T03:45:53;98670.06;;;32.87;58.18
17772;BME280;9010;32.624;-96.938;2022-08-04T03:48:54;98674.91;;;32.74;59.29
17772;BME280;9010;32.624;-96.938;2022-08-04T03:51:40;98670.78;;;32.71;57.40
17772;BME280;9010;32.624;-96.938;2022-08-04T03:55:03;98672.09;;;32.69;57.38
17772;BME280;9010;32.624;-96.938;2022-08-04T03:57:51;98678.47;;;32.63;57.65
17772;BME280;9010;32.624;-96.938;2022-08-04T04:00:28;98675.97;;;32.61;60.60
17772;BME280;9010;32.624;-96.938;2022-08-04T04:03:29;98674.78;;;32.57;59.68
17772;BME280;9010;32.624;-96.938;2022-08-04T04:06:25;98671.47;;;32.55;59.83
17772;BME280;9010;32.624;-96.938;2022-08-04T04:09:33;98680.56;;;32.49;60.38
17772;BME280;9010;32.624;-96.938;2022-08-04T04:15:28;98686.69;;;32.44;59.79
17772;BME280;9010;32.624;-96.938;2022-08-04T04:18:18;98690.34;;;32.50;59.96
17772;BME280;9010;32.624;-96.938;2022-08-04T04:21:29;98698.47;;;32.57;59.07
17772;BME280;9010;32.624;-96.938;2022-08-04T04:24:26;98703.06;;;32.56;59.87
17772;BME280;9010;32.624;-96.938;2022-08-04T04:27:08;98690.88;;;32.59;58.44
17772;BME280;9010;32.624;-96.938;2022-08-04T04:30:01;98697.75;;;32.61;59.73
17772;BME280;9010;32.624;-96.938;2022-08-04T04:32:37;98695.50;;;32.58;59.08
17772;BME280;9010;32.624;-96.938;2022-08-04T04:35:22;98691.72;;;32.59;58.69
17772;BME280;9010;32.624;-96.938;2022-08-04T04:38:20;98695.00;;;32.61;58.75
17772;BME280;9010;32.624;-96.938;2022-08-04T04:41:04;98703.19;;;32.61;58.90
17772;BME280;9010;32.624;-96.938;2022-08-04T04:43:53;98707.47;;;32.57;58.92
17772;BME280;9010;32.624;-96.938;2022-08-04T04:46:36;98700.47;;;32.61;59.09
17772;BME280;9010;32.624;-96.938;2022-08-04T04:49:13;98704.84;;;32.62;60.24
17772;BME280;9010;32.624;-96.938;2022-08-04T04:51:48;98707.81;;;32.61;59.62
17772;BME280;9010;32.624;-96.938;2022-08-04T04:54:26;98708.63;;;32.61;59.47
17772;BME280;9010;32.624;-96.938;2022-08-04T04:57:06;98707.47;;;32.57;60.81
17772;BME280;9010;32.624;-96.938;2022-08-04T04:59:40;98708.81;;;32.48;61.63
17772;BME280;9010;32.624;-96.938;2022-08-04T05:02:38;98710.50;;;32.49;60.80
17772;BME280;9010;32.624;-96.938;2022-08-04T05:11:40;98712.31;;;32.55;60.60
17772;BME280;9010;32.624;-96.938;2022-08-04T05:14:19;98714.38;;;32.53;61.18
17772;BME280;9010;32.624;-96.938;2022-08-04T05:16:55;98711.09;;;32.51;61.00
17772;BME280;9010;32.624;-96.938;2022-08-04T05:19:33;98718.50;;;32.44;61.94
17772;BME280;9010;32.624;-96.938;2022-08-04T05:22:11;98717.13;;;32.53;60.89
17772;BME280;9010;32.624;-96.938;2022-08-04T05:24:45;98707.63;;;32.44;60.53
17772;BME280;9010;32.624;-96.938;2022-08-04T05:27:18;98710.50;;;32.49;61.96
17772;BME280;9010;32.624;-96.938;2022-08-04T05:29:53;98718.50;;;32.44;61.27
17772;BME280;9010;32.624;-96.938;2022-08-04T05:32:27;98714.25;;;32.48;61.41
17772;BME280;9010;32.624;-96.938;2022-08-04T05:35:01;98718.28;;;32.46;61.17
17772;BME280;9010;32.624;-96.938;2022-08-04T05:37:31;98718.50;;;32.44;61.67
17772;BME280;9010;32.624;-96.938;2022-08-04T05:40:04;98712.34;;;32.37;61.91
17772;BME280;9010;32.624;-96.938;2022-08-04T05:42:36;98726.41;;;32.34;62.35
17772;BME280;9010;32.624;-96.938;2022-08-04T05:45:08;98722.66;;;32.35;62.56
17772;BME280;9010;32.624;-96.938;2022-08-04T05:47:37;98724.16;;;32.31;62.75
17772;BME280;9010;32.624;-96.938;2022-08-04T05:50:07;98735.75;;;32.26;63.12
17772;BME280;9010;32.624;-96.938;2022-08-04T05:52:36;98737.13;;;32.17;63.23
17772;BME280;9010;32.624;-96.938;2022-08-04T05:55:07;98731.56;;;32.12;63.62
17772;BME280;9010;32.624;-96.938;2022-08-04T05:57:39;98734.94;;;32.08;64.14
17772;BME280;9010;32.624;-96.938;2022-08-04T06:00:10;98728.38;;;31.97;64.02
17772;BME280;9010;32.624;-96.938;2022-08-04T06:02:40;98745.69;;;32.03;64.23
17772;BME280;9010;32.624;-96.938;2022-08-04T06:05:10;98748.47;;;31.96;65.45
17772;BME280;9010;32.624;-96.938;2022-08-04T06:07:40;98753.56;;;31.93;65.20
17772;BME280;9010;32.624;-96.938;2022-08-04T06:10:08;98748.78;;;31.88;66.16
17772;BME280;9010;32.624;-96.938;2022-08-04T06:12:41;98742.16;;;31.84;66.27
17772;BME280;9010;32.624;-96.938;2022-08-04T06:15:17;98746.63;;;31.78;65.48
17772;BME280;9010;32.624;-96.938;2022-08-04T06:17:48;98743.28;;;31.76;66.87
17772;BME280;9010;32.624;-96.938;2022-08-04T06:20:17;98741.63;;;31.75;65.78
17772;BME280;9010;32.624;-96.938;2022-08-04T06:22:49;98743.72;;;31.73;66.54
17772;BME280;9010;32.624;-96.938;2022-08-04T06:25:21;98741.72;;;31.69;65.90
17772;BME280;9010;32.624;-96.938;2022-08-04T06:27:51;98742.09;;;31.72;65.77
17772;BME280;9010;32.624;-96.938;2022-08-04T06:30:21;98746.91;;;31.70;65.69
17772;BME280;9010;32.624;-96.938;2022-08-04T06:32:52;98741.78;;;31.62;65.96
17772;BME280;9010;32.624;-96.938;2022-08-04T06:35:24;98749.03;;;31.68;65.55
17772;BME280;9010;32.624;-96.938;2022-08-04T06:37:54;98741.31;;;31.65;66.20
17772;BME280;9010;32.624;-96.938;2022-08-04T06:40:23;98746.31;;;31.68;65.31
17772;BME280;9010;32.624;-96.938;2022-08-04T06:42:53;98745.25;;;31.69;65.91
17772;BME280;9010;32.624;-96.938;2022-08-04T06:45:26;98741.78;;;31.62;66.56
17772;BME280;9010;32.624;-96.938;2022-08-04T06:47:55;98735.16;;;31.58;66.28
17772;BME280;9010;32.624;-96.938;2022-08-04T06:50:24;98735.16;;;31.58;66.90
17772;BME280;9010;32.624;-96.938;2022-08-04T06:52:53;98740.59;;;31.58;66.09
17772;BME280;9010;32.624;-96.938;2022-08-04T06:55:21;98743.13;;;31.53;66.41
17772;BME280;9010;32.624;-96.938;2022-08-04T06:57:50;98742.78;;;31.50;66.53
17772;BME280;9010;32.624;-96.938;2022-08-04T07:00:19;98735.69;;;31.42;67.45
17772;BME280;9010;32.624;-96.938;2022-08-04T07:02:51;98724.69;;;31.37;67.17
17772;BME280;9010;32.624;-96.938;2022-08-04T07:05:20;98729.13;;;31.31;68.86
17772;BME280;9010;32.624;-96.938;2022-08-04T07:07:49;98729.59;;;31.28;67.84
17772;BME280;9010;32.624;-96.938;2022-08-04T07:10:17;98736.31;;;31.26;67.90
17772;BME280;9010;32.624;-96.938;2022-08-04T07:12:48;98727.16;;;31.20;69.26
17772;BME280;9010;32.624;-96.938;2022-08-04T07:15:19;98722.25;;;31.11;69.00
17772;BME280;9010;32.624;-96.938;2022-08-04T07:17:50;98723.31;;;31.10;69.75
17772;BME280;9010;32.624;-96.938;2022-08-04T07:20:19;98721.03;;;31.07;68.68
17772;BME280;9010;32.624;-96.938;2022-08-04T07:22:48;98721.53;;;30.97;69.97
17772;BME280;9010;32.624;-96.938;2022-08-04T07:25:17;98717.34;;;31.01;70.18
17772;BME280;9010;32.624;-96.938;2022-08-04T07:27:45;98709.41;;;31.00;69.48
17772;BME280;9010;32.624;-96.938;2022-08-04T07:30:14;98708.00;;;30.91;70.83
17772;BME280;9010;32.624;-96.938;2022-08-04T07:32:44;98703.63;;;30.90;70.89
17772;BME280;9010;32.624;-96.938;2022-08-04T07:35:15;98702.41;;;30.86;70.74
17772;BME280;9010;32.624;-96.938;2022-08-04T07:37:46;98719.75;;;30.85;71.75
17772;BME280;9010;32.624;-96.938;2022-08-04T07:40:14;98719.13;;;30.83;71.54
17772;BME280;9010;32.624;-96.938;2022-08-04T07:42:42;98711.44;;;30.80;72.30
17772;BME280;9010;32.624;-96.938;2022-08-04T07:45:11;98713.78;;;30.76;72.85
17772;BME280;9010;32.624;-96.938;2022-08-04T07:47:42;98716.38;;;30.64;73.20
17772;BME280;9010;32.624;-96.938;2022-08-04T07:50:10;98717.22;;;30.65;73.01
17772;BME280;9010;32.624;-96.938;2022-08-04T07:52:40;98711.34;;;30.68;73.41
17772;BME280;9010;32.624;-96.938;2022-08-04T07:55:09;98722.84;;;30.63;74.11
17772;BME280;9010;32.624;-96.938;2022-08-04T07:57:37;98713.94;;;30.56;74.66
17772;BME280;9010;32.624;-96.938;2022-08-04T08:00:07;98718.13;;;30.52;74.91
17772;BME280;9010;32.624;-96.938;2022-08-04T08:02:37;98715.91;;;30.43;76.54
17772;BME280;9010;32.624;-96.938;2022-08-04T08:05:07;98715.72;;;30.38;76.39
17772;BME280;9010;32.624;-96.938;2022-08-04T08:07:38;98714.91;;;30.37;76.30
17772;BME280;9010;32.624;-96.938;2022-08-04T08:10:11;98714.50;;;30.34;76.53
17772;BME280;9010;32.624;-96.938;2022-08-04T08:12:40;98715.53;;;30.39;76.48
17772;BME280;9010;32.624;-96.938;2022-08-04T08:15:10;98716.13;;;30.35;77.16
17772;BME280;9010;32.624;-96.938;2022-08-04T08:17:39;98718.13;;;30.21;78.52
17772;BME280;9010;32.624;-96.938;2022-08-04T08:20:08;98717.94;;;30.16;78.58
17772;BME280;9010;32.624;-96.938;2022-08-04T08:22:39;98722.69;;;30.20;78.69
17772;BME280;9010;32.624;-96.938;2022-08-04T08:25:07;98719.59;;;30.17;78.91
17772;BME280;9010;32.624;-96.938;2022-08-04T08:27:36;98730.44;;;30.17;79.47
17772;BME280;9010;32.624;-96.938;2022-08-04T08:30:06;98744.22;;;30.15;79.93
17772;BME280;9010;32.624;-96.938;2022-08-04T08:32:34;98743.81;;;30.12;80.72
17772;BME280;9010;32.624;-96.938;2022-08-04T08:35:03;98745.94;;;30.03;81.70
17772;BME280;9010;32.624;-96.938;2022-08-04T08:37:34;98714.34;;;29.91;82.16
17772;BME280;9010;32.624;-96.938;2022-08-04T08:40:21;98738.91;;;29.96;83.01
17772;BME280;9010;32.624;-96.938;2022-08-04T08:43:21;98735.63;;;29.87;83.62
17772;BME280;9010;32.624;-96.938;2022-08-04T08:46:01;98740.19;;;29.87;83.42
17772;BME280;9010;32.624;-96.938;2022-08-04T08:48:58;98752.28;;;29.78;84.27
17772;BME280;9010;32.624;-96.938;2022-08-04T08:51:48;98751.06;;;29.74;84.17
17772;BME280;9010;32.624;-96.938;2022-08-04T08:54:46;98744.41;;;29.70;84.54
17772;BME280;9010;32.624;-96.938;2022-08-04T08:57:35;98753.00;;;29.60;85.84
17772;BME280;9010;32.624;-96.938;2022-08-04T09:00:11;98761.53;;;29.63;86.02
17772;BME280;9010;32.624;-96.938;2022-08-04T09:03:00;98765.31;;;29.56;87.22
17772;BME280;9010;32.624;-96.938;2022-08-04T09:05:42;98767.78;;;29.57;87.62
17772;BME280;9010;32.624;-96.938;2022-08-04T09:08:26;98767.41;;;29.54;89.14
17772;BME280;9010;32.624;-96.938;2022-08-04T09:11:00;98766.38;;;29.48;89.09
17772;BME280;9010;32.624;-96.938;2022-08-04T09:13:35;98766.56;;;29.40;90.08
17772;BME280;9010;32.624;-96.938;2022-08-04T09:16:13;98777.88;;;29.37;90.44
17772;BME280;9010;32.624;-96.938;2022-08-04T09:18:46;98775.59;;;29.28;90.96
17772;BME280;9010;32.624;-96.938;2022-08-04T09:21:23;98774.97;;;29.26;91.54
17772;BME280;9010;32.624;-96.938;2022-08-04T09:24:02;98768.72;;;29.25;91.24
17772;BME280;9010;32.624;-96.938;2022-08-04T09:26:39;98771.84;;;29.22;91.89
17772;BME280;9010;32.624;-96.938;2022-08-04T09:29:16;98776.19;;;29.17;92.12
17772;BME280;9010;32.624;-96.938;2022-08-04T09:31:54;98781.19;;;29.06;92.63
17772;BME280;9010;32.624;-96.938;2022-08-04T09:34:33;98770.56;;;29.05;93.27
17772;BME280;9010;32.624;-96.938;2022-08-04T09:37:14;98769.53;;;28.99;94.19
17772;BME280;9010;32.624;-96.938;2022-08-04T09:39:51;98774.94;;;28.93;94.65
17772;BME280;9010;32.624;-96.938;2022-08-04T09:42:31;98774.97;;;28.86;95.48
17772;BME280;9010;32.624;-96.938;2022-08-04T09:45:11;98769.13;;;28.83;95.98
17772;BME280;9010;32.624;-96.938;2022-08-04T09:47:48;98778.28;;;28.82;96.43
17772;BME280;9010;32.624;-96.938;2022-08-04T09:50:32;98769.97;;;28.83;96.81
17772;BME280;9010;32.624;-96.938;2022-08-04T09:53:26;98775.97;;;28.79;97.11
17772;BME280;9010;32.624;-96.938;2022-08-04T09:56:05;98786.00;;;28.72;98.14
17772;BME280;9010;32.624;-96.938;2022-08-04T09:58:45;98788.47;;;28.67;98.76
17772;BME280;9010;32.624;-96.938;2022-08-04T10:01:22;98763.25;;;28.60;98.74
17772;BME280;9010;32.624;-96.938;2022-08-04T10:03:52;98778.69;;;28.66;99.41
17772;BME280;9010;32.624;-96.938;2022-08-04T10:06:55;98790.94;;;28.62;99.26
17772;BME280;9010;32.624;-96.938;2022-08-04T10:09:42;98794.31;;;28.64;99.81
17772;BME280;9010;32.624;-96.938;2022-08-04T10:12:26;98799.84;;;28.56;100.00
17772;BME280;9010;32.624;-96.938;2022-08-04T10:15:07;98802.78;;;28.54;100.00
17772;BME280;9010;32.624;-96.938;2022-08-04T10:17:50;98797.78;;;28.51;100.00
17772;BME280;9010;32.624;-96.938;2022-08-04T10:20:36;98810.22;;;28.39;100.00
17772;BME280;9010;32.624;-96.938;2022-08-04T10:26:08;98821.88;;;28.39;100.00
17772;BME280;9010;32.624;-96.938;2022-08-04T10:28:45;98826.03;;;28.35;100.00
17772;BME280;9010;32.624;-96.938;2022-08-04T10:31:19;98831.00;;;28.25;100.00
17772;BME280;9010;32.624;-96.938;2022-08-04T10:33:56;98830.78;;;28.20;100.00
17772;BME280;9010;32.624;-96.938;2022-08-04T10:36:29;98842.84;;;28.18;100.00
17772;BME280;9010;32.624;-96.938;2022-08-04T10:39:04;98850.06;;;28.11;100.00
17772;BME280;9010;32.624;-96.938;2022-08-04T10:41:38;98840.44;;;28.02;100.00
17772;BME280;9010;32.624;-96.938;2022-08-04T10:44:16;98848.81;;;28.07;100.00
17772;BME280;9010;32.624;-96.938;2022-08-04T10:46:53;98840.91;;;28.05;100.00
17772;BME280;9010;32.624;-96.938;2022-08-04T10:49:31;98831.91;;;27.98;100.00
17772;BME280;9010;32.624;-96.938;2022-08-04T10:52:06;98844.38;;;27.99;100.00
17772;BME280;9010;32.624;-96.938;2022-08-04T10:54:40;98842.91;;;27.96;100.00
17772;BME280;9010;32.624;-96.938;2022-08-04T10:57:22;98848.25;;;27.90;100.00
17772;BME280;9010;32.624;-96.938;2022-08-04T10:59:57;98856.19;;;27.91;100.00
17772;BME280;9010;32.624;-96.938;2022-08-04T11:02:35;98852.25;;;27.94;100.00
17772;BME280;9010;32.624;-96.938;2022-08-04T11:05:17;98852.22;;;27.87;100.00
17772;BME280;9010;32.624;-96.938;2022-08-04T11:07:51;98854.50;;;27.90;100.00
17772;BME280;9010;32.624;-96.938;2022-08-04T11:10:22;98837.22;;;27.78;100.00
17772;BME280;9010;32.624;-96.938;2022-08-04T11:12:58;98854.50;;;27.84;100.00
17772;BME280;9010;32.624;-96.938;2022-08-04T11:15:36;98861.94;;;27.82;100.00
17772;BME280;9010;32.624;-96.938;2022-08-04T11:18:09;98869.22;;;27.81;100.00
17772;BME280;9010;32.624;-96.938;2022-08-04T11:20:48;98876.50;;;27.81;100.00
17772;BME280;9010;32.624;-96.938;2022-08-04T11:23:20;98868.53;;;27.73;100.00
17772;BME280;9010;32.624;-96.938;2022-08-04T11:25:55;98878.94;;;27.69;100.00
17772;BME280;9010;32.624;-96.938;2022-08-04T11:28:37;98888.94;;;27.75;100.00
17772;BME280;9010;32.624;-96.938;2022-08-04T11:31:11;98891.22;;;27.72;100.00
17772;BME280;9010;32.624;-96.938;2022-08-04T11:33:46;98900.09;;;27.66;100.00
17772;BME280;9010;32.624;-96.938;2022-08-04T11:36:26;98898.41;;;27.65;100.00
17772;BME280;9010;32.624;-96.938;2022-08-04T11:39:05;98895.47;;;27.60;100.00
17772;BME280;9010;32.624;-96.938;2022-08-04T11:41:41;98890.91;;;27.60;100.00
17772;BME280;9010;32.624;-96.938;2022-08-04T11:44:22;98888.41;;;27.59;100.00
17772;BME280;9010;32.624;-96.938;2022-08-04T11:46:57;98889.63;;;27.56;100.00
17772;BME280;9010;32.624;-96.938;2022-08-04T11:49:40;98888.41;;;27.59;100.00
17772;BME280;9010;32.624;-96.938;2022-08-04T11:52:15;98893.78;;;27.59;100.00
17772;BME280;9010;32.624;-96.938;2022-08-04T11:54:48;98883.41;;;27.56;100.00
17772;BME280;9010;32.624;-96.938;2022-08-04T11:57:17;98901.91;;;27.59;100.00
17772;BME280;9010;32.624;-96.938;2022-08-04T11:59:46;98907.91;;;27.54;100.00
17772;BME280;9010;32.624;-96.938;2022-08-04T12:02:36;98917.88;;;27.54;100.00
17772;BME280;9010;32.624;-96.938;2022-08-04T12:05:10;98920.78;;;27.52;100.00
17772;BME280;9010;32.624;-96.938;2022-08-04T12:07:48;98924.34;;;27.59;100.00
17772;BME280;9010;32.624;-96.938;2022-08-04T12:10:25;98919.72;;;27.53;100.00
17772;BME280;9010;32.624;-96.938;2022-08-04T12:13:08;98909.13;;;27.52;100.00
17772;BME280;9010;32.624;-96.938;2022-08-04T12:15:43;98915.47;;;27.65;100.00
17772;BME280;9010;32.624;-96.938;2022-08-04T12:18:18;98920.63;;;27.60;100.00
17772;BME280;9010;32.624;-96.938;2022-08-04T12:20:50;98928.34;;;27.63;100.00
17772;BME280;9010;32.624;-96.938;2022-08-04T12:23:28;98926.28;;;27.65;100.00
17772;BME280;9010;32.624;-96.938;2022-08-04T12:26:02;98925.44;;;27.65;100.00
17772;BME280;9010;32.624;-96.938;2022-08-04T12:28:32;98932.06;;;27.62;100.00
17772;BME280;9010;32.624;-96.938;2022-08-04T12:31:07;98944.56;;;27.63;100.00
17772;BME280;9010;32.624;-96.938;2022-08-04T12:33:43;98947.88;;;27.65;100.00
17772;BME280;9010;32.624;-96.938;2022-08-04T12:36:26;98948.34;;;27.69;100.00
17772;BME280;9010;32.624;-96.938;2022-08-04T12:39:04;98941.38;;;27.81;100.00
17772;BME280;9010;32.624;-96.938;2022-08-04T12:41:39;98925.72;;;27.76;100.00
17772;BME280;9010;32.624;-96.938;2022-08-04T12:44:12;98943.69;;;27.90;100.00
17772;BME280;9010;32.624;-96.938;2022-08-04T12:46:44;98943.91;;;27.89;100.00
17772;BME280;9010;32.624;-96.938;2022-08-04T12:49:14;98937.59;;;27.75;100.00
17772;BME280;9010;32.624;-96.938;2022-08-04T12:51:43;98952.19;;;27.81;100.00
17772;BME280;9010;32.624;-96.938;2022-08-04T12:54:22;98957.66;;;27.94;100.00
17772;BME280;9010;32.624;-96.938;2022-08-04T12:56:55;98957.28;;;27.97;100.00
17772;BME280;9010;32.624;-96.938;2022-08-04T12:59:24;98955.19;;;27.99;100.00
17772;BME280;9010;32.624;-96.938;2022-08-04T13:01:53;98956.13;;;28.06;100.00
17772;BME280;9010;32.624;-96.938;2022-08-04T13:04:24;98957.28;;;27.97;100.00
17772;BME280;9010;32.624;-96.938;2022-08-04T13:06:56;98954.03;;;28.08;100.00
17772;BME280;9010;32.624;-96.938;2022-08-04T13:09:32;98961.53;;;28.06;100.00
17772;BME280;9010;32.624;-96.938;2022-08-04T13:12:04;98951.09;;;28.03;100.00
17772;BME280;9010;32.624;-96.938;2022-08-04T13:14:40;98968.41;;;28.09;100.00
17772;BME280;9010;32.624;-96.938;2022-08-04T13:17:11;98967.63;;;28.21;100.00
17772;BME280;9010;32.624;-96.938;2022-08-04T13:19:45;98954.25;;;28.47;100.00
17772;BME280;9010;32.624;-96.938;2022-08-04T13:22:23;98957.34;;;28.85;100.00
17772;BME280;9010;32.624;-96.938;2022-08-04T13:24:54;98959.47;;;29.09;100.00
17772;BME280;9010;32.624;-96.938;2022-08-04T13:27:25;98964.09;;;29.09;100.00
17772;BME280;9010;32.624;-96.938;2022-08-04T13:29:55;98971.38;;;29.08;100.00
17772;BME280;9010;32.624;-96.938;2022-08-04T13:32:24;98979.03;;;28.98;100.00
17772;BME280;9010;32.624;-96.938;2022-08-04T13:34:55;98987.78;;;28.94;100.00
17772;BME280;9010;32.624;-96.938;2022-08-04T13:37:25;98984.59;;;28.84;100.00
17772;BME280;9010;32.624;-96.938;2022-08-04T13:39:59;98992.69;;;28.71;100.00
17772;BME280;9010;32.624;-96.938;2022-08-04T13:42:30;98989.34;;;28.69;100.00
17772;BME280;9010;32.624;-96.938;2022-08-04T13:45:01;98991.56;;;28.59;100.00
17772;BME280;9010;32.624;-96.938;2022-08-04T13:47:31;98993.09;;;28.68;100.00
17772;BME280;9010;32.624;-96.938;2022-08-04T13:50:10;99003.72;;;28.69;100.00
17772;BME280;9010;32.624;-96.938;2022-08-04T13:52:40;99015.22;;;28.78;100.00
17772;BME280;9010;32.624;-96.938;2022-08-04T13:55:27;99011.66;;;28.77;100.00
17772;BME280;9010;32.624;-96.938;2022-08-04T13:57:58;99009.81;;;28.78;100.00
17772;BME280;9010;32.624;-96.938;2022-08-04T14:00:40;99017.34;;;28.89;100.00